sensor_id;sensor_type;location;lat;lon;timestamp;P1;durP1;ratioP1;P2;durP2;ratioP2
50872;SDS011;72604;40.088;18.346;2024-01-15T00:01:17;16.92;;;12.93;;
50872;SDS011;72604;40.088;18.346;2024-01-15T00:05:00;23.02;;;14.20;;
50872;SDS011;72604;40.088;18.346;2024-01-15T00:08:42;16.52;;;13.82;;
50872;SDS011;72604;40.088;18.346;2024-01-15T00:12:22;24.30;;;16.42;;
50872;SDS011;72604;40.088;18.346;2024-01-15T00:16:04;21.65;;;15.35;;
50872;SDS011;72604;40.088;18.346;2024-01-15T00:19:45;19.98;;;14.93;;
50872;SDS011;72604;40.088;18.346;2024-01-15T00:23:28;20.77;;;14.60;;
50872;SDS011;72604;40.088;18.346;2024-01-15T00:27:09;17.80;;;12.88;;
50872;SDS011;72604;40.088;18.346;2024-01-15T00:30:50;19.48;;;12.93;;
50872;SDS011;72604;40.088;18.346;2024-01-15T00:34:31;18.02;;;12.38;;
50872;SDS011;72604;40.088;18.346;2024-01-15T00:38:14;15.75;;;11.75;;
50872;SDS011;72604;40.088;18.346;2024-01-15T00:41:57;14.77;;;10.98;;
50872;SDS011;72604;40.088;18.346;2024-01-15T00:45:38;19.33;;;11.30;;
50872;SDS011;72604;40.088;18.346;2024-01-15T00:49:19;16.42;;;11.27;;
50872;SDS011;72604;40.088;18.346;2024-01-15T00:53:00;15.98;;;11.32;;
50872;SDS011;72604;40.088;18.346;2024-01-15T00:56:40;14.05;;;10.25;;
50872;SDS011;72604;40.088;18.346;2024-01-15T01:00:23;17.80;;;9.32;;
50872;SDS011;72604;40.088;18.346;2024-01-15T01:04:04;15.50;;;9.00;;
50872;SDS011;72604;40.088;18.346;2024-01-15T01:07:45;12.07;;;8.60;;
50872;SDS011;72604;40.088;18.346;2024-01-15T01:11:26;13.20;;;8.57;;
50872;SDS011;72604;40.088;18.346;2024-01-15T01:15:07;14.07;;;8.18;;
50872;SDS011;72604;40.088;18.346;2024-01-15T01:18:49;14.10;;;8.13;;
50872;SDS011;72604;40.088;18.346;2024-01-15T01:22:31;9.75;;;7.05;;
50872;SDS011;72604;40.088;18.346;2024-01-15T01:26:14;10.82;;;6.90;;
50872;SDS011;72604;40.088;18.346;2024-01-15T01:29:56;14.40;;;6.47;;
50872;SDS011;72604;40.088;18.346;2024-01-15T01:33:38;11.02;;;7.10;;
50872;SDS011;72604;40.088;18.346;2024-01-15T01:37:20;12.38;;;7.22;;
50872;SDS011;72604;40.088;18.346;2024-01-15T01:41:01;13.77;;;7.65;;
50872;SDS011;72604;40.088;18.346;2024-01-15T01:44:42;17.75;;;8.88;;
50872;SDS011;72604;40.088;18.346;2024-01-15T01:48:23;11.80;;;7.45;;
50872;SDS011;72604;40.088;18.346;2024-01-15T01:52:05;12.93;;;9.38;;
50872;SDS011;72604;40.088;18.346;2024-01-15T01:55:48;13.55;;;7.80;;
50872;SDS011;72604;40.088;18.346;2024-01-15T01:59:30;10.85;;;6.95;;
50872;SDS011;72604;40.088;18.346;2024-01-15T02:03:11;15.35;;;7.30;;
50872;SDS011;72604;40.088;18.346;2024-01-15T02:06:52;11.98;;;7.47;;
50872;SDS011;72604;40.088;18.346;2024-01-15T02:10:33;10.25;;;5.90;;
50872;SDS011;72604;40.088;18.346;2024-01-15T02:14:16;10.43;;;5.70;;
50872;SDS011;72604;40.088;18.346;2024-01-15T02:17:58;19.55;;;6.38;;
50872;SDS011;72604;40.088;18.346;2024-01-15T02:21:38;7.88;;;6.00;;
50872;SDS011;72604;40.088;18.346;2024-01-15T02:25:21;15.95;;;6.35;;
50872;SDS011;72604;40.088;18.346;2024-01-15T02:29:02;12.82;;;6.05;;
50872;SDS011;72604;40.088;18.346;2024-01-15T02:32:44;15.23;;;6.32;;
50872;SDS011;72604;40.088;18.346;2024-01-15T02:36:25;12.13;;;5.00;;
50872;SDS011;72604;40.088;18.346;2024-01-15T02:40:06;13.77;;;5.28;;
50872;SDS011;72604;40.088;18.346;2024-01-15T02:43:49;8.60;;;4.78;;
50872;SDS011;72604;40.088;18.346;2024-01-15T02:47:31;9.75;;;4.75;;
50872;SDS011;72604;40.088;18.346;2024-01-15T02:51:11;7.25;;;4.22;;
50872;SDS011;72604;40.088;18.346;2024-01-15T02:54:53;10.23;;;4.47;;
50872;SDS011;72604;40.088;18.346;2024-01-15T02:58:34;10.88;;;4.15;;
50872;SDS011;72604;40.088;18.346;2024-01-15T03:02:16;9.07;;;4.45;;
50872;SDS011;72604;40.088;18.346;2024-01-15T03:05:56;10.55;;;4.03;;
50872;SDS011;72604;40.088;18.346;2024-01-15T03:09:38;10.57;;;4.53;;
50872;SDS011;72604;40.088;18.346;2024-01-15T03:13:19;9.18;;;4.55;;
50872;SDS011;72604;40.088;18.346;2024-01-15T03:16:59;11.48;;;5.03;;
50872;SDS011;72604;40.088;18.346;2024-01-15T03:20:42;11.00;;;4.47;;
50872;SDS011;72604;40.088;18.346;2024-01-15T03:24:23;9.75;;;4.30;;
50872;SDS011;72604;40.088;18.346;2024-01-15T03:28:04;9.32;;;4.82;;
50872;SDS011;72604;40.088;18.346;2024-01-15T03:31:46;7.40;;;4.30;;
50872;SDS011;72604;40.088;18.346;2024-01-15T03:35:27;7.88;;;4.25;;
50872;SDS011;72604;40.088;18.346;2024-01-15T03:39:10;10.15;;;4.00;;
50872;SDS011;72604;40.088;18.346;2024-01-15T03:42:51;10.90;;;4.53;;
50872;SDS011;72604;40.088;18.346;2024-01-15T03:46:31;12.10;;;4.57;;
50872;SDS011;72604;40.088;18.346;2024-01-15T03:50:12;15.93;;;5.07;;
50872;SDS011;72604;40.088;18.346;2024-01-15T03:53:54;7.82;;;4.68;;
50872;SDS011;72604;40.088;18.346;2024-01-15T03:57:37;9.88;;;4.32;;
50872;SDS011;72604;40.088;18.346;2024-01-15T04:01:17;11.05;;;5.35;;
50872;SDS011;72604;40.088;18.346;2024-01-15T04:04:58;6.88;;;4.10;;
50872;SDS011;72604;40.088;18.346;2024-01-15T04:08:39;12.82;;;5.22;;
50872;SDS011;72604;40.088;18.346;2024-01-15T04:12:20;10.82;;;5.15;;
50872;SDS011;72604;40.088;18.346;2024-01-15T04:16:02;15.23;;;5.10;;
50872;SDS011;72604;40.088;18.346;2024-01-15T04:19:43;10.20;;;5.00;;
50872;SDS011;72604;40.088;18.346;2024-01-15T04:23:25;8.75;;;5.07;;
50872;SDS011;72604;40.088;18.346;2024-01-15T04:27:05;10.13;;;4.50;;
50872;SDS011;72604;40.088;18.346;2024-01-15T04:30:47;10.18;;;5.00;;
50872;SDS011;72604;40.088;18.346;2024-01-15T04:34:29;10.63;;;4.30;;
50872;SDS011;72604;40.088;18.346;2024-01-15T04:38:10;8.20;;;4.25;;
50872;SDS011;72604;40.088;18.346;2024-01-15T04:41:51;7.57;;;4.22;;
50872;SDS011;72604;40.088;18.346;2024-01-15T04:45:32;7.88;;;3.22;;
50872;SDS011;72604;40.088;18.346;2024-01-15T04:49:13;7.22;;;3.47;;
50872;SDS011;72604;40.088;18.346;2024-01-15T04:52:55;10.15;;;4.72;;
50872;SDS011;72604;40.088;18.346;2024-01-15T04:56:36;9.13;;;3.75;;
50872;SDS011;72604;40.088;18.346;2024-01-15T05:00:17;5.78;;;3.45;;
50872;SDS011;72604;40.088;18.346;2024-01-15T05:03:58;9.15;;;3.72;;
50872;SDS011;72604;40.088;18.346;2024-01-15T05:07:40;7.45;;;3.65;;
50872;SDS011;72604;40.088;18.346;2024-01-15T05:11:22;6.75;;;3.50;;
50872;SDS011;72604;40.088;18.346;2024-01-15T05:15:03;7.97;;;3.80;;
50872;SDS011;72604;40.088;18.346;2024-01-15T05:18:44;9.93;;;3.83;;
50872;SDS011;72604;40.088;18.346;2024-01-15T05:22:25;7.57;;;3.33;;
50872;SDS011;72604;40.088;18.346;2024-01-15T05:26:06;8.02;;;4.10;;
50872;SDS011;72604;40.088;18.346;2024-01-15T05:29:49;10.32;;;3.75;;
50872;SDS011;72604;40.088;18.346;2024-01-15T05:33:30;7.75;;;3.25;;
50872;SDS011;72604;40.088;18.346;2024-01-15T05:37:12;9.18;;;3.60;;
50872;SDS011;72604;40.088;18.346;2024-01-15T05:40:53;9.55;;;3.22;;
50872;SDS011;72604;40.088;18.346;2024-01-15T05:44:34;6.72;;;3.10;;
50872;SDS011;72604;40.088;18.346;2024-01-15T05:48:17;8.68;;;4.03;;
50872;SDS011;72604;40.088;18.346;2024-01-15T05:51:58;11.02;;;3.30;;
50872;SDS011;72604;40.088;18.346;2024-01-15T05:55:39;7.65;;;2.60;;
50872;SDS011;72604;40.088;18.346;2024-01-15T05:59:20;5.82;;;2.72;;
50872;SDS011;72604;40.088;18.346;2024-01-15T06:03:01;6.80;;;2.95;;
50872;SDS011;72604;40.088;18.346;2024-01-15T06:06:44;9.40;;;3.30;;
50872;SDS011;72604;40.088;18.346;2024-01-15T06:10:25;6.93;;;3.25;;
50872;SDS011;72604;40.088;18.346;2024-01-15T06:14:06;5.28;;;3.03;;
50872;SDS011;72604;40.088;18.346;2024-01-15T06:17:46;6.22;;;2.90;;
50872;SDS011;72604;40.088;18.346;2024-01-15T06:21:28;9.27;;;2.75;;
50872;SDS011;72604;40.088;18.346;2024-01-15T06:25:10;8.88;;;2.80;;
50872;SDS011;72604;40.088;18.346;2024-01-15T06:28:51;8.48;;;2.47;;
50872;SDS011;72604;40.088;18.346;2024-01-15T06:32:32;6.43;;;2.65;;
50872;SDS011;72604;40.088;18.346;2024-01-15T06:36:13;4.97;;;1.95;;
50872;SDS011;72604;40.088;18.346;2024-01-15T06:39:55;7.43;;;2.45;;
50872;SDS011;72604;40.088;18.346;2024-01-15T06:43:37;6.38;;;2.22;;
50872;SDS011;72604;40.088;18.346;2024-01-15T06:47:19;8.93;;;2.60;;
50872;SDS011;72604;40.088;18.346;2024-01-15T06:51:00;13.25;;;2.97;;
50872;SDS011;72604;40.088;18.346;2024-01-15T06:54:41;11.25;;;3.30;;
50872;SDS011;72604;40.088;18.346;2024-01-15T06:58:22;7.80;;;2.90;;
50872;SDS011;72604;40.088;18.346;2024-01-15T07:02:04;7.32;;;2.90;;
50872;SDS011;72604;40.088;18.346;2024-01-15T07:05:45;9.70;;;3.22;;
50872;SDS011;72604;40.088;18.346;2024-01-15T07:09:26;9.13;;;3.08;;
50872;SDS011;72604;40.088;18.346;2024-01-15T07:13:07;12.30;;;4.07;;
50872;SDS011;72604;40.088;18.346;2024-01-15T07:16:48;11.43;;;3.70;;
50872;SDS011;72604;40.088;18.346;2024-01-15T07:20:30;8.02;;;3.45;;
50872;SDS011;72604;40.088;18.346;2024-01-15T07:24:11;10.63;;;3.42;;
50872;SDS011;72604;40.088;18.346;2024-01-15T07:27:52;9.93;;;3.33;;
50872;SDS011;72604;40.088;18.346;2024-01-15T07:31:34;11.63;;;3.80;;
50872;SDS011;72604;40.088;18.346;2024-01-15T07:35:15;15.68;;;3.75;;
50872;SDS011;72604;40.088;18.346;2024-01-15T07:38:58;9.57;;;3.47;;
50872;SDS011;72604;40.088;18.346;2024-01-15T07:42:38;11.75;;;4.78;;
50872;SDS011;72604;40.088;18.346;2024-01-15T07:46:19;12.88;;;5.82;;
50872;SDS011;72604;40.088;18.346;2024-01-15T07:50:00;14.18;;;5.40;;
50872;SDS011;72604;40.088;18.346;2024-01-15T07:53:41;12.85;;;4.55;;
50872;SDS011;72604;40.088;18.346;2024-01-15T07:57:24;14.80;;;4.28;;
50872;SDS011;72604;40.088;18.346;2024-01-15T08:01:04;12.90;;;3.70;;
50872;SDS011;72604;40.088;18.346;2024-01-15T08:04:45;10.98;;;4.30;;
50872;SDS011;72604;40.088;18.346;2024-01-15T08:08:26;7.18;;;3.83;;
50872;SDS011;72604;40.088;18.346;2024-01-15T08:12:07;7.93;;;3.40;;
50872;SDS011;72604;40.088;18.346;2024-01-15T08:15:51;10.15;;;3.38;;
50872;SDS011;72604;40.088;18.346;2024-01-15T08:19:32;9.57;;;3.30;;
50872;SDS011;72604;40.088;18.346;2024-01-15T08:23:13;11.90;;;3.72;;
50872;SDS011;72604;40.088;18.346;2024-01-15T08:26:54;12.90;;;3.45;;
50872;SDS011;72604;40.088;18.346;2024-01-15T08:30:35;10.52;;;3.80;;
50872;SDS011;72604;40.088;18.346;2024-01-15T08:34:17;9.10;;;3.95;;
50872;SDS011;72604;40.088;18.346;2024-01-15T08:37:59;13.75;;;4.13;;
50872;SDS011;72604;40.088;18.346;2024-01-15T08:41:40;13.73;;;4.38;;
50872;SDS011;72604;40.088;18.346;2024-01-15T08:45:21;11.90;;;4.03;;
50872;SDS011;72604;40.088;18.346;2024-01-15T08:49:02;12.70;;;4.50;;
50872;SDS011;72604;40.088;18.346;2024-01-15T08:52:44;14.32;;;4.80;;
50872;SDS011;72604;40.088;18.346;2024-01-15T08:56:26;12.88;;;4.70;;
50872;SDS011;72604;40.088;18.346;2024-01-15T09:00:08;10.95;;;4.53;;
50872;SDS011;72604;40.088;18.346;2024-01-15T09:03:49;11.75;;;5.47;;
50872;SDS011;72604;40.088;18.346;2024-01-15T09:07:30;9.77;;;4.22;;
50872;SDS011;72604;40.088;18.346;2024-01-15T09:11:12;9.75;;;4.43;;
50872;SDS011;72604;40.088;18.346;2024-01-15T09:14:53;14.15;;;4.90;;
50872;SDS011;72604;40.088;18.346;2024-01-15T09:18:34;16.20;;;4.30;;
50872;SDS011;72604;40.088;18.346;2024-01-15T09:22:14;9.63;;;4.03;;
50872;SDS011;72604;40.088;18.346;2024-01-15T09:25:58;10.80;;;3.95;;
50872;SDS011;72604;40.088;18.346;2024-01-15T09:29:41;9.38;;;4.07;;
50872;SDS011;72604;40.088;18.346;2024-01-15T09:33:24;11.32;;;3.80;;
50872;SDS011;72604;40.088;18.346;2024-01-15T09:37:05;10.32;;;3.65;;
50872;SDS011;72604;40.088;18.346;2024-01-15T09:40:45;9.77;;;3.72;;
50872;SDS011;72604;40.088;18.346;2024-01-15T09:44:28;13.05;;;4.30;;
50872;SDS011;72604;40.088;18.346;2024-01-15T09:48:11;9.43;;;3.67;;
50872;SDS011;72604;40.088;18.346;2024-01-15T09:51:53;9.70;;;4.13;;
50872;SDS011;72604;40.088;18.346;2024-01-15T09:55:38;10.25;;;3.60;;
50872;SDS011;72604;40.088;18.346;2024-01-15T09:59:19;13.50;;;4.47;;
50872;SDS011;72604;40.088;18.346;2024-01-15T10:03:00;8.82;;;3.85;;
50872;SDS011;72604;40.088;18.346;2024-01-15T10:06:44;9.25;;;3.80;;
50872;SDS011;72604;40.088;18.346;2024-01-15T10:10:26;9.70;;;4.05;;
50872;SDS011;72604;40.088;18.346;2024-01-15T10:14:07;12.45;;;4.10;;
50872;SDS011;72604;40.088;18.346;2024-01-15T10:17:48;14.70;;;3.95;;
50872;SDS011;72604;40.088;18.346;2024-01-15T10:21:30;14.60;;;4.45;;
50872;SDS011;72604;40.088;18.346;2024-01-15T10:25:13;11.73;;;4.10;;
50872;SDS011;72604;40.088;18.346;2024-01-15T10:28:54;8.88;;;3.65;;
50872;SDS011;72604;40.088;18.346;2024-01-15T10:32:35;10.52;;;3.92;;
50872;SDS011;72604;40.088;18.346;2024-01-15T10:36:16;10.73;;;3.80;;
50872;SDS011;72604;40.088;18.346;2024-01-15T10:39:57;10.18;;;3.15;;
50872;SDS011;72604;40.088;18.346;2024-01-15T10:43:40;12.60;;;3.15;;
50872;SDS011;72604;40.088;18.346;2024-01-15T10:47:21;7.63;;;2.70;;
50872;SDS011;72604;40.088;18.346;2024-01-15T10:51:03;11.35;;;3.60;;
50872;SDS011;72604;40.088;18.346;2024-01-15T10:54:50;7.47;;;2.95;;
50872;SDS011;72604;40.088;18.346;2024-01-15T10:58:31;8.30;;;2.75;;
50872;SDS011;72604;40.088;18.346;2024-01-15T11:02:15;9.57;;;2.80;;
50872;SDS011;72604;40.088;18.346;2024-01-15T11:05:56;11.23;;;3.83;;
50872;SDS011;72604;40.088;18.346;2024-01-15T11:09:37;14.93;;;3.17;;
50872;SDS011;72604;40.088;18.346;2024-01-15T11:13:19;7.47;;;2.90;;
50872;SDS011;72604;40.088;18.346;2024-01-15T11:17:01;9.60;;;2.47;;
50872;SDS011;72604;40.088;18.346;2024-01-15T11:20:51;9.57;;;2.92;;
50872;SDS011;72604;40.088;18.346;2024-01-15T11:24:51;10.00;;;3.28;;
50872;SDS011;72604;40.088;18.346;2024-01-15T11:28:48;12.32;;;3.60;;
50872;SDS011;72604;40.088;18.346;2024-01-15T11:32:33;8.80;;;3.50;;
50872;SDS011;72604;40.088;18.346;2024-01-15T11:36:16;10.55;;;3.58;;
50872;SDS011;72604;40.088;18.346;2024-01-15T11:40:00;12.95;;;4.28;;
50872;SDS011;72604;40.088;18.346;2024-01-15T11:43:43;9.88;;;3.40;;
50872;SDS011;72604;40.088;18.346;2024-01-15T11:51:28;5.85;;;2.55;;
50872;SDS011;72604;40.088;18.346;2024-01-15T11:55:14;5.53;;;2.42;;
50872;SDS011;72604;40.088;18.346;2024-01-15T11:58:58;8.13;;;2.63;;
50872;SDS011;72604;40.088;18.346;2024-01-15T12:02:40;5.57;;;2.40;;
50872;SDS011;72604;40.088;18.346;2024-01-15T12:06:22;11.43;;;3.05;;
50872;SDS011;72604;40.088;18.346;2024-01-15T12:10:05;6.60;;;2.70;;
50872;SDS011;72604;40.088;18.346;2024-01-15T12:13:48;9.80;;;2.65;;
50872;SDS011;72604;40.088;18.346;2024-01-15T12:17:32;6.15;;;2.45;;
50872;SDS011;72604;40.088;18.346;2024-01-15T12:21:13;8.30;;;2.63;;
50872;SDS011;72604;40.088;18.346;2024-01-15T12:24:54;6.50;;;2.50;;
50872;SDS011;72604;40.088;18.346;2024-01-15T12:28:37;37.50;;;21.67;;
50872;SDS011;72604;40.088;18.346;2024-01-15T12:32:19;27.35;;;17.42;;
50872;SDS011;72604;40.088;18.346;2024-01-15T12:36:00;12.90;;;8.40;;
50872;SDS011;72604;40.088;18.346;2024-01-15T12:39:42;18.75;;;14.05;;
50872;SDS011;72604;40.088;18.346;2024-01-15T12:43:23;10.32;;;5.43;;
50872;SDS011;72604;40.088;18.346;2024-01-15T12:47:06;6.72;;;3.05;;
50872;SDS011;72604;40.088;18.346;2024-01-15T12:50:47;7.85;;;3.38;;
50872;SDS011;72604;40.088;18.346;2024-01-15T12:54:28;7.57;;;3.00;;
50872;SDS011;72604;40.088;18.346;2024-01-15T12:58:09;12.98;;;4.70;;
50872;SDS011;72604;40.088;18.346;2024-01-15T13:01:50;8.57;;;4.35;;
50872;SDS011;72604;40.088;18.346;2024-01-15T13:05:33;9.60;;;3.58;;
50872;SDS011;72604;40.088;18.346;2024-01-15T13:09:16;15.15;;;6.13;;
50872;SDS011;72604;40.088;18.346;2024-01-15T13:12:57;14.05;;;4.93;;
50872;SDS011;72604;40.088;18.346;2024-01-15T13:16:39;12.75;;;4.30;;
50872;SDS011;72604;40.088;18.346;2024-01-15T13:20:21;13.40;;;6.57;;
50872;SDS011;72604;40.088;18.346;2024-01-15T13:24:03;13.70;;;7.35;;
50872;SDS011;72604;40.088;18.346;2024-01-15T13:27:45;13.27;;;6.30;;
50872;SDS011;72604;40.088;18.346;2024-01-15T13:31:26;18.15;;;6.70;;
50872;SDS011;72604;40.088;18.346;2024-01-15T13:35:08;15.30;;;8.77;;
50872;SDS011;72604;40.088;18.346;2024-01-15T13:38:52;13.25;;;5.50;;
50872;SDS011;72604;40.088;18.346;2024-01-15T13:42:36;13.40;;;5.60;;
50872;SDS011;72604;40.088;18.346;2024-01-15T13:46:19;15.75;;;8.50;;
50872;SDS011;72604;40.088;18.346;2024-01-15T13:50:01;11.57;;;6.63;;
50872;SDS011;72604;40.088;18.346;2024-01-15T13:53:43;11.82;;;5.40;;
50872;SDS011;72604;40.088;18.346;2024-01-15T13:57:24;55.10;;;35.65;;
50872;SDS011;72604;40.088;18.346;2024-01-15T14:01:07;50.38;;;36.50;;
50872;SDS011;72604;40.088;18.346;2024-01-15T14:04:49;17.88;;;7.90;;
50872;SDS011;72604;40.088;18.346;2024-01-15T14:08:29;24.73;;;18.63;;
50872;SDS011;72604;40.088;18.346;2024-01-15T14:12:11;24.67;;;21.17;;
50872;SDS011;72604;40.088;18.346;2024-01-15T14:15:52;17.05;;;10.93;;
50872;SDS011;72604;40.088;18.346;2024-01-15T14:19:34;15.27;;;9.00;;
50872;SDS011;72604;40.088;18.346;2024-01-15T14:23:16;18.00;;;9.63;;
50872;SDS011;72604;40.088;18.346;2024-01-15T14:26:57;8.90;;;4.90;;
50872;SDS011;72604;40.088;18.346;2024-01-15T14:30:38;19.90;;;8.88;;
50872;SDS011;72604;40.088;18.346;2024-01-15T14:34:19;14.80;;;8.88;;
50872;SDS011;72604;40.088;18.346;2024-01-15T14:38:04;14.80;;;7.30;;
50872;SDS011;72604;40.088;18.346;2024-01-15T14:41:47;25.20;;;17.23;;
50872;SDS011;72604;40.088;18.346;2024-01-15T14:45:28;17.80;;;10.63;;
50872;SDS011;72604;40.088;18.346;2024-01-15T14:49:10;21.42;;;9.60;;
50872;SDS011;72604;40.088;18.346;2024-01-15T14:52:51;20.63;;;12.32;;
50872;SDS011;72604;40.088;18.346;2024-01-15T14:56:33;25.10;;;12.30;;
50872;SDS011;72604;40.088;18.346;2024-01-15T15:00:14;20.70;;;12.05;;
50872;SDS011;72604;40.088;18.346;2024-01-15T15:03:57;28.70;;;11.85;;
50872;SDS011;72604;40.088;18.346;2024-01-15T15:07:38;20.45;;;9.85;;
50872;SDS011;72604;40.088;18.346;2024-01-15T15:11:18;27.60;;;14.73;;
50872;SDS011;72604;40.088;18.346;2024-01-15T15:15:00;24.42;;;14.73;;
50872;SDS011;72604;40.088;18.346;2024-01-15T15:18:42;29.70;;;16.45;;
50872;SDS011;72604;40.088;18.346;2024-01-15T15:22:24;19.83;;;10.73;;
50872;SDS011;72604;40.088;18.346;2024-01-15T15:26:04;18.10;;;9.95;;
50872;SDS011;72604;40.088;18.346;2024-01-15T15:29:45;19.58;;;11.05;;
50872;SDS011;72604;40.088;18.346;2024-01-15T15:33:29;21.52;;;8.90;;
50872;SDS011;72604;40.088;18.346;2024-01-15T15:37:10;18.80;;;9.65;;
50872;SDS011;72604;40.088;18.346;2024-01-15T15:40:52;21.42;;;9.88;;
50872;SDS011;72604;40.088;18.346;2024-01-15T15:44:33;23.25;;;12.65;;
50872;SDS011;72604;40.088;18.346;2024-01-15T15:48:14;24.10;;;14.80;;
50872;SDS011;72604;40.088;18.346;2024-01-15T15:51:56;38.20;;;20.52;;
50872;SDS011;72604;40.088;18.346;2024-01-15T15:55:37;30.00;;;21.65;;
50872;SDS011;72604;40.088;18.346;2024-01-15T15:59:18;37.13;;;30.08;;
50872;SDS011;72604;40.088;18.346;2024-01-15T16:03:01;40.10;;;25.83;;
50872;SDS011;72604;40.088;18.346;2024-01-15T16:06:42;30.25;;;19.20;;
50872;SDS011;72604;40.088;18.346;2024-01-15T16:10:27;29.25;;;16.85;;
50872;SDS011;72604;40.088;18.346;2024-01-15T16:14:08;20.85;;;12.95;;
50872;SDS011;72604;40.088;18.346;2024-01-15T16:17:49;22.70;;;13.60;;
50872;SDS011;72604;40.088;18.346;2024-01-15T16:21:30;16.35;;;9.02;;
50872;SDS011;72604;40.088;18.346;2024-01-15T16:25:33;21.52;;;9.70;;
50872;SDS011;72604;40.088;18.346;2024-01-15T16:29:17;18.33;;;12.60;;
50872;SDS011;72604;40.088;18.346;2024-01-15T16:32:58;30.42;;;21.85;;
50872;SDS011;72604;40.088;18.346;2024-01-15T16:36:39;31.08;;;20.08;;
50872;SDS011;72604;40.088;18.346;2024-01-15T16:40:20;29.42;;;19.13;;
50872;SDS011;72604;40.088;18.346;2024-01-15T16:44:02;32.83;;;24.10;;
50872;SDS011;72604;40.088;18.346;2024-01-15T16:47:43;34.05;;;21.10;;
50872;SDS011;72604;40.088;18.346;2024-01-15T16:51:24;27.23;;;20.85;;
50872;SDS011;72604;40.088;18.346;2024-01-15T16:55:06;34.17;;;22.55;;
50872;SDS011;72604;40.088;18.346;2024-01-15T16:58:47;48.33;;;33.28;;
50872;SDS011;72604;40.088;18.346;2024-01-15T17:02:29;46.67;;;35.55;;
50872;SDS011;72604;40.088;18.346;2024-01-15T17:06:11;50.50;;;38.80;;
50872;SDS011;72604;40.088;18.346;2024-01-15T17:09:52;40.53;;;34.65;;
50872;SDS011;72604;40.088;18.346;2024-01-15T17:13:34;33.58;;;23.92;;
50872;SDS011;72604;40.088;18.346;2024-01-15T17:17:15;30.48;;;23.77;;
50872;SDS011;72604;40.088;18.346;2024-01-15T17:20:59;34.92;;;25.35;;
50872;SDS011;72604;40.088;18.346;2024-01-15T17:24:39;35.13;;;25.50;;
50872;SDS011;72604;40.088;18.346;2024-01-15T17:28:20;35.78;;;24.38;;
50872;SDS011;72604;40.088;18.346;2024-01-15T17:32:03;34.83;;;25.13;;
50872;SDS011;72604;40.088;18.346;2024-01-15T17:35:50;35.33;;;26.75;;
50872;SDS011;72604;40.088;18.346;2024-01-15T17:39:32;49.05;;;39.28;;
50872;SDS011;72604;40.088;18.346;2024-01-15T17:43:13;50.63;;;39.15;;
50872;SDS011;72604;40.088;18.346;2024-01-15T17:46:54;37.65;;;31.48;;
50872;SDS011;72604;40.088;18.346;2024-01-15T17:50:35;36.22;;;26.65;;
50872;SDS011;72604;40.088;18.346;2024-01-15T17:54:18;29.08;;;20.60;;
50872;SDS011;72604;40.088;18.346;2024-01-15T17:58:00;32.58;;;24.58;;
50872;SDS011;72604;40.088;18.346;2024-01-15T18:01:41;34.22;;;25.60;;
50872;SDS011;72604;40.088;18.346;2024-01-15T18:05:23;28.73;;;18.92;;
50872;SDS011;72604;40.088;18.346;2024-01-15T18:09:04;37.85;;;28.55;;
50872;SDS011;72604;40.088;18.346;2024-01-15T18:12:46;21.15;;;16.65;;
50872;SDS011;72604;40.088;18.346;2024-01-15T18:16:28;18.52;;;14.60;;
50872;SDS011;72604;40.088;18.346;2024-01-15T18:20:10;18.70;;;14.10;;
50872;SDS011;72604;40.088;18.346;2024-01-15T18:23:52;17.42;;;10.63;;
50872;SDS011;72604;40.088;18.346;2024-01-15T18:27:33;17.30;;;10.90;;
50872;SDS011;72604;40.088;18.346;2024-01-15T18:31:13;15.38;;;8.75;;
50872;SDS011;72604;40.088;18.346;2024-01-15T18:34:56;14.60;;;10.85;;
50872;SDS011;72604;40.088;18.346;2024-01-15T18:38:36;18.25;;;10.88;;
50872;SDS011;72604;40.088;18.346;2024-01-15T18:42:18;15.45;;;11.80;;
50872;SDS011;72604;40.088;18.346;2024-01-15T18:46:03;19.98;;;12.18;;
50872;SDS011;72604;40.088;18.346;2024-01-15T18:49:44;21.05;;;15.77;;
50872;SDS011;72604;40.088;18.346;2024-01-15T18:53:27;21.08;;;13.35;;
50872;SDS011;72604;40.088;18.346;2024-01-15T18:57:08;21.90;;;14.05;;
50872;SDS011;72604;40.088;18.346;2024-01-15T19:00:49;23.75;;;17.17;;
50872;SDS011;72604;40.088;18.346;2024-01-15T19:04:30;20.98;;;15.15;;
50872;SDS011;72604;40.088;18.346;2024-01-15T19:08:11;22.02;;;16.75;;
50872;SDS011;72604;40.088;18.346;2024-01-15T19:11:53;22.50;;;15.15;;
50872;SDS011;72604;40.088;18.346;2024-01-15T19:15:34;21.67;;;17.45;;
50872;SDS011;72604;40.088;18.346;2024-01-15T19:19:14;23.70;;;18.88;;
50872;SDS011;72604;40.088;18.346;2024-01-15T19:22:56;25.48;;;19.50;;
50872;SDS011;72604;40.088;18.346;2024-01-15T19:26:38;22.27;;;18.13;;
50872;SDS011;72604;40.088;18.346;2024-01-15T19:30:21;23.48;;;19.02;;
50872;SDS011;72604;40.088;18.346;2024-01-15T19:34:01;33.65;;;25.58;;
50872;SDS011;72604;40.088;18.346;2024-01-15T19:37:43;28.55;;;20.63;;
50872;SDS011;72604;40.088;18.346;2024-01-15T19:41:24;23.48;;;18.25;;
50872;SDS011;72604;40.088;18.346;2024-01-15T19:45:06;21.48;;;18.58;;
50872;SDS011;72604;40.088;18.346;2024-01-15T19:48:48;19.52;;;17.00;;
50872;SDS011;72604;40.088;18.346;2024-01-15T19:52:29;21.45;;;10.88;;
50872;SDS011;72604;40.088;18.346;2024-01-15T19:56:11;20.35;;;15.57;;
50872;SDS011;72604;40.088;18.346;2024-01-15T19:59:56;19.30;;;13.98;;
50872;SDS011;72604;40.088;18.346;2024-01-15T20:03:37;23.85;;;16.52;;
50872;SDS011;72604;40.088;18.346;2024-01-15T20:07:22;24.30;;;19.98;;
50872;SDS011;72604;40.088;18.346;2024-01-15T20:11:03;26.83;;;19.17;;
50872;SDS011;72604;40.088;18.346;2024-01-15T20:14:44;25.55;;;17.55;;
50872;SDS011;72604;40.088;18.346;2024-01-15T20:18:25;22.15;;;14.75;;
50872;SDS011;72604;40.088;18.346;2024-01-15T20:22:07;27.83;;;17.10;;
50872;SDS011;72604;40.088;18.346;2024-01-15T20:25:50;38.95;;;25.02;;
50872;SDS011;72604;40.088;18.346;2024-01-15T20:29:31;27.23;;;17.20;;
50872;SDS011;72604;40.088;18.346;2024-01-15T20:33:12;18.92;;;13.05;;
50872;SDS011;72604;40.088;18.346;2024-01-15T20:36:53;17.67;;;8.70;;
50872;SDS011;72604;40.088;18.346;2024-01-15T20:40:34;16.08;;;7.55;;
50872;SDS011;72604;40.088;18.346;2024-01-15T20:44:16;13.38;;;6.20;;
50872;SDS011;72604;40.088;18.346;2024-01-15T20:47:58;12.10;;;5.40;;
50872;SDS011;72604;40.088;18.346;2024-01-15T20:51:39;13.70;;;5.85;;
50872;SDS011;72604;40.088;18.346;2024-01-15T20:55:20;15.75;;;5.90;;
50872;SDS011;72604;40.088;18.346;2024-01-15T20:59:02;14.02;;;5.38;;
50872;SDS011;72604;40.088;18.346;2024-01-15T21:02:45;14.27;;;7.93;;
50872;SDS011;72604;40.088;18.346;2024-01-15T21:06:25;14.65;;;7.35;;
50872;SDS011;72604;40.088;18.346;2024-01-15T21:10:07;33.45;;;21.92;;
50872;SDS011;72604;40.088;18.346;2024-01-15T21:13:48;26.63;;;17.35;;
50872;SDS011;72604;40.088;18.346;2024-01-15T21:17:29;21.77;;;12.77;;
50872;SDS011;72604;40.088;18.346;2024-01-15T21:21:13;21.90;;;8.73;;
50872;SDS011;72604;40.088;18.346;2024-01-15T21:24:54;18.33;;;8.15;;
50872;SDS011;72604;40.088;18.346;2024-01-15T21:28:36;14.50;;;8.30;;
50872;SDS011;72604;40.088;18.346;2024-01-15T21:32:17;17.63;;;8.63;;
50872;SDS011;72604;40.088;18.346;2024-01-15T21:35:58;22.98;;;10.25;;
50872;SDS011;72604;40.088;18.346;2024-01-15T21:39:41;25.85;;;14.68;;